x

Fowey Rock, Fl (fwyf1) Weather Station

3:00am - Wed 31st Aug 2016 All times are EDT. -4 hours from GMT.

  • Wind
    30mph, 33mph gusts
  • Sea Temp 83°f
  • Air Temp 82°f
  • Sea Pressure 1014.2mb
  • Fowey Rock, Fl
  • Fowey Rock, Fl

More Historic Weather Station data

Upgrade to MSW Pro to gain access to the past 30 days of data for over 8000 Wavebouys and Weather Stations around the globe.

Join Pro

Comparision Forecast

View Surf forecast
   
Wed 08/31 3:00am 30 33 mph 1014.2mb 83f 82f
2:00am 24 28 mph 1014.5mb 83f 81f
1:00am 25 28 mph 1015.1mb 83f 81f
12:00am 26 29 mph 1015.2mb 84f 80f
Tue 08/30 11:00pm 25 28 mph 1015.8mb 84f 80f
10:00pm 26 29 mph 1015.2mb 84f 80f
9:00pm 17 20 mph 1014.7mb 84f 80f
8:00pm 3 5 mph 1014.6mb 84f 79f
7:00pm 8 10 mph 1014.4mb 84f 78f
6:00pm 1 3 mph 1014.6mb 84f 78f
5:00pm 3 5 mph 1013.9mb 84f 78f
4:00pm 9
mph
1013.8mb 84f 77f
3:00pm 43 49 mph 1014.5mb 84f 77f
2:00pm 20 21 mph 1014.2mb 84f 85f
1:00pm 22 24 mph 1014.7mb 84f 85f
12:00pm 22 23 mph 1014.6mb 84f 84f
11:00am 23 24 mph 1014.6mb 84f 84f
10:00am 18 20 mph 1014.8mb 84f 84f
9:00am 21 22 mph 1014.1mb 84f 84f
8:00am 18 21 mph 1013.5mb 84f 83f
7:00am 20 21 mph 1012.5mb 84f 82f
6:00am 18 20 mph 1012.5mb 84f 80f
5:00am 22 23 mph 1012.6mb 84f 82f
4:00am 23 24 mph 1012.5mb 84f 81f
3:00am 22 23 mph 1012.8mb 85f 81f
2:00am 21 22 mph 1012.8mb 85f 81f
1:00am 22 24 mph 1013.5mb 85f 81f
12:00am 16 18 mph 1014mb 85f 77f
Mon 08/29 11:00pm 17 20 mph 1014.2mb 85f 79f
10:00pm 30 33 mph 1014.4mb 85f 77f
9:00pm 23 26 mph 1013.7mb 85f 81f
8:00pm 23 24 mph 1012.8mb 85f 81f
7:00pm 21 22 mph 1012.4mb 85f 80f
6:00pm 25 28 mph 1012.3mb 86f 79f
5:00pm 20 22 mph 1012.9mb 86f 82f
4:00pm 21 22 mph 1012.8mb 86f 82f
3:00pm 20 21 mph 1012.9mb 86f 82f
2:00pm 11 13 mph 1013.6mb 86f 80f
1:00pm 16 17 mph 1014.3mb 85f 82f
12:00pm 15 16 mph 1014.1mb 85f 83f
11:00am 16 17 mph 1014.3mb 85f 82f
10:00am 18 20 mph 1014mb 85f 81f
9:00am 14 15 mph 1013.6mb 85f 82f
8:00am 6 8 mph 1013.4mb 85f 80f
7:00am 15
mph
1012.9mb 85f 81f
6:00am 23 24 mph 1012.6mb 85f 78f
5:00am 5 6 mph 1012.3mb 85f 81f
4:00am 6 7 mph 1012.3mb 85f 80f
3:00am 9 10 mph 1013mb 85f 79f
2:00am 15 16 mph 1013.4mb 85f 78f
1:00am 14 16 mph 1013.4mb 85f 82f
12:00am 11 13 mph 1013.8mb 85f 81f
Sun 08/28 11:00pm 21 23 mph 1013.8mb 85f 84f
10:00pm 20 21 mph 1013.8mb 85f 83f
9:00pm 20 21 mph 1013.2mb 85f 83f
8:00pm 21 23 mph 1012.6mb 85f 83f
7:00pm 20 21 mph 1012.2mb 86f 83f
6:00pm 18 20 mph 1012.1mb 86f 83f
5:00pm 20 21 mph 1012.1mb 86f 82f
4:00pm 23 24 mph 1012.5mb 86f 84f
3:00pm 25 26 mph 1012.6mb 86f 83f
2:00pm 21 23 mph 1013.1mb 86f 83f
1:00pm 22 24 mph 1013.5mb 86f 83f
12:00pm 28 30 mph 1013.7mb 86f 84f
11:00am 28 29 mph 1013.8mb 85f 84f
10:00am 22 24 mph 1013.8mb 85f 83f
9:00am 23 25 mph 1013.4mb 85f 84f
8:00am 26 31 mph 1013mb 85f 83f
7:00am 26 29 mph 1012.3mb 85f 83f
6:00am 25 26 mph 1011.9mb 85f 84f
5:00am 28 31 mph 1011.7mb 85f 83f
4:00am 28 30 mph 1011.4mb 86f 84f
3:00am 24 26 mph 1011.6mb 86f 82f
2:00am 23 24 mph 1012.2mb 86f 83f
1:00am 21 22 mph 1012.4mb 86f 84f
12:00am 18 20 mph 1012.9mb 85f 85f
Sat 08/27 11:00pm 18 20 mph 1013.3mb 85f 84f
10:00pm 17 20 mph 1013mb 86f 85f
9:00pm 21 23 mph 1012.4mb 86f 85f
8:00pm 22 23 mph 1012.2mb 86f 86f
7:00pm 17 18 mph 1011.9mb 86f 86f
6:00pm 18 20 mph 1011.7mb 86f 86f
5:00pm 22 23 mph 1011.9mb 86f 86f
4:00pm 20 22 mph 1011.7mb 86f 85f
3:00pm 18 20 mph 1012.4mb 86f 85f
2:00pm 20 21 mph 1013.5mb 86f 85f
1:00pm 22 25 mph 1013.5mb 86f 86f
12:00pm 22 25 mph 1013.8mb 86f 85f
11:00am 18 20 mph 1013.8mb 86f 83f
10:00am 21 22 mph 1013.7mb 86f 81f
9:00am 14
mph
1013.1mb 86f 85f